sensor_id;sensor_type;location;lat;lon;timestamp;P1;durP1;ratioP1;P2;durP2;ratioP2
76127;SDS011;64873;50.102;14.434;2023-07-30T00:01:30;4.40;;;1.73;;
76127;SDS011;64873;50.102;14.434;2023-07-30T00:03:56;2.45;;;1.60;;
76127;SDS011;64873;50.102;14.434;2023-07-30T00:06:21;3.90;;;1.90;;
76127;SDS011;64873;50.102;14.434;2023-07-30T00:08:46;3.42;;;1.90;;
76127;SDS011;64873;50.102;14.434;2023-07-30T00:11:12;5.88;;;2.20;;
76127;SDS011;64873;50.102;14.434;2023-07-30T00:13:37;3.75;;;1.85;;
76127;SDS011;64873;50.102;14.434;2023-07-30T00:16:03;4.18;;;1.42;;
76127;SDS011;64873;50.102;14.434;2023-07-30T00:18:28;3.03;;;1.77;;
76127;SDS011;64873;50.102;14.434;2023-07-30T00:20:53;2.65;;;1.65;;
76127;SDS011;64873;50.102;14.434;2023-07-30T00:23:19;2.65;;;1.55;;
76127;SDS011;64873;50.102;14.434;2023-07-30T00:25:44;4.22;;;1.80;;
76127;SDS011;64873;50.102;14.434;2023-07-30T00:28:09;4.13;;;1.90;;
76127;SDS011;64873;50.102;14.434;2023-07-30T00:30:35;3.00;;;1.80;;
76127;SDS011;64873;50.102;14.434;2023-07-30T00:33:00;5.32;;;1.95;;
76127;SDS011;64873;50.102;14.434;2023-07-30T00:35:26;4.50;;;1.80;;
76127;SDS011;64873;50.102;14.434;2023-07-30T00:37:51;5.32;;;1.95;;
76127;SDS011;64873;50.102;14.434;2023-07-30T00:40:17;5.90;;;2.10;;
76127;SDS011;64873;50.102;14.434;2023-07-30T00:42:43;3.70;;;2.00;;
76127;SDS011;64873;50.102;14.434;2023-07-30T00:45:08;3.22;;;2.08;;
76127;SDS011;64873;50.102;14.434;2023-07-30T00:47:34;3.60;;;2.22;;
76127;SDS011;64873;50.102;14.434;2023-07-30T00:50:01;3.60;;;2.08;;
76127;SDS011;64873;50.102;14.434;2023-07-30T00:52:27;4.93;;;1.90;;
76127;SDS011;64873;50.102;14.434;2023-07-30T00:54:53;4.10;;;1.90;;
76127;SDS011;64873;50.102;14.434;2023-07-30T00:57:21;4.20;;;2.20;;
76127;SDS011;64873;50.102;14.434;2023-07-30T00:59:48;3.55;;;2.17;;
76127;SDS011;64873;50.102;14.434;2023-07-30T01:02:14;2.80;;;1.75;;
76127;SDS011;64873;50.102;14.434;2023-07-30T01:04:40;3.08;;;1.70;;
76127;SDS011;64873;50.102;14.434;2023-07-30T01:07:06;3.00;;;1.70;;
76127;SDS011;64873;50.102;14.434;2023-07-30T01:09:32;2.42;;;1.73;;
76127;SDS011;64873;50.102;14.434;2023-07-30T01:11:58;4.53;;;2.05;;
76127;SDS011;64873;50.102;14.434;2023-07-30T01:14:25;4.50;;;2.25;;
76127;SDS011;64873;50.102;14.434;2023-07-30T01:16:51;3.92;;;1.95;;
76127;SDS011;64873;50.102;14.434;2023-07-30T01:19:17;4.32;;;1.90;;
76127;SDS011;64873;50.102;14.434;2023-07-30T01:21:43;4.53;;;1.88;;
76127;SDS011;64873;50.102;14.434;2023-07-30T01:24:08;3.35;;;1.80;;
76127;SDS011;64873;50.102;14.434;2023-07-30T01:26:38;5.43;;;1.85;;
76127;SDS011;64873;50.102;14.434;2023-07-30T01:29:22;2.80;;;1.80;;
76127;SDS011;64873;50.102;14.434;2023-07-30T01:31:54;2.95;;;1.90;;
76127;SDS011;64873;50.102;14.434;2023-07-30T01:34:27;3.08;;;1.80;;
76127;SDS011;64873;50.102;14.434;2023-07-30T01:36:53;4.55;;;1.70;;
76127;SDS011;64873;50.102;14.434;2023-07-30T01:39:19;2.60;;;1.70;;
76127;SDS011;64873;50.102;14.434;2023-07-30T01:41:45;3.05;;;1.88;;
76127;SDS011;64873;50.102;14.434;2023-07-30T01:44:11;2.55;;;1.85;;
76127;SDS011;64873;50.102;14.434;2023-07-30T01:46:36;2.38;;;1.58;;
76127;SDS011;64873;50.102;14.434;2023-07-30T01:49:02;3.20;;;1.95;;
76127;SDS011;64873;50.102;14.434;2023-07-30T01:51:27;3.63;;;2.08;;
76127;SDS011;64873;50.102;14.434;2023-07-30T01:53:52;2.47;;;1.80;;
76127;SDS011;64873;50.102;14.434;2023-07-30T01:56:18;2.85;;;1.63;;
76127;SDS011;64873;50.102;14.434;2023-07-30T01:58:43;6.88;;;1.80;;
76127;SDS011;64873;50.102;14.434;2023-07-30T02:01:09;3.08;;;1.83;;
76127;SDS011;64873;50.102;14.434;2023-07-30T02:03:34;3.33;;;2.10;;
76127;SDS011;64873;50.102;14.434;2023-07-30T02:05:59;3.78;;;2.00;;
76127;SDS011;64873;50.102;14.434;2023-07-30T02:08:25;3.88;;;1.95;;
76127;SDS011;64873;50.102;14.434;2023-07-30T02:10:57;5.20;;;1.80;;
76127;SDS011;64873;50.102;14.434;2023-07-30T02:13:23;3.45;;;1.83;;
76127;SDS011;64873;50.102;14.434;2023-07-30T02:15:49;4.18;;;2.30;;
76127;SDS011;64873;50.102;14.434;2023-07-30T02:18:15;4.88;;;2.10;;
76127;SDS011;64873;50.102;14.434;2023-07-30T02:20:40;5.82;;;2.42;;
76127;SDS011;64873;50.102;14.434;2023-07-30T02:23:06;5.80;;;2.40;;
76127;SDS011;64873;50.102;14.434;2023-07-30T02:25:32;3.78;;;2.08;;
76127;SDS011;64873;50.102;14.434;2023-07-30T02:27:58;4.93;;;2.22;;
76127;SDS011;64873;50.102;14.434;2023-07-30T02:30:24;2.67;;;1.90;;
76127;SDS011;64873;50.102;14.434;2023-07-30T02:32:50;5.03;;;2.17;;
76127;SDS011;64873;50.102;14.434;2023-07-30T02:35:15;3.03;;;1.90;;
76127;SDS011;64873;50.102;14.434;2023-07-30T02:37:41;3.47;;;2.00;;
76127;SDS011;64873;50.102;14.434;2023-07-30T02:40:06;3.40;;;2.20;;
76127;SDS011;64873;50.102;14.434;2023-07-30T02:42:32;2.83;;;1.90;;
76127;SDS011;64873;50.102;14.434;2023-07-30T02:44:57;4.88;;;2.30;;
76127;SDS011;64873;50.102;14.434;2023-07-30T02:47:23;2.72;;;1.90;;
76127;SDS011;64873;50.102;14.434;2023-07-30T02:49:48;3.47;;;1.85;;
76127;SDS011;64873;50.102;14.434;2023-07-30T02:52:14;4.10;;;2.22;;
76127;SDS011;64873;50.102;14.434;2023-07-30T02:54:39;4.20;;;1.98;;
76127;SDS011;64873;50.102;14.434;2023-07-30T02:57:05;3.55;;;1.80;;
76127;SDS011;64873;50.102;14.434;2023-07-30T02:59:30;4.68;;;2.00;;
76127;SDS011;64873;50.102;14.434;2023-07-30T03:01:56;4.05;;;1.92;;
76127;SDS011;64873;50.102;14.434;2023-07-30T03:04:21;3.83;;;2.20;;
76127;SDS011;64873;50.102;14.434;2023-07-30T03:06:46;3.20;;;2.00;;
76127;SDS011;64873;50.102;14.434;2023-07-30T03:09:12;3.28;;;2.17;;
76127;SDS011;64873;50.102;14.434;2023-07-30T03:11:37;5.78;;;1.95;;
76127;SDS011;64873;50.102;14.434;2023-07-30T03:14:03;6.47;;;2.25;;
76127;SDS011;64873;50.102;14.434;2023-07-30T03:16:29;3.25;;;1.90;;
76127;SDS011;64873;50.102;14.434;2023-07-30T03:18:54;3.20;;;1.85;;
76127;SDS011;64873;50.102;14.434;2023-07-30T03:21:19;3.75;;;1.90;;
76127;SDS011;64873;50.102;14.434;2023-07-30T03:23:45;3.55;;;2.30;;
76127;SDS011;64873;50.102;14.434;2023-07-30T03:26:10;3.85;;;2.33;;
76127;SDS011;64873;50.102;14.434;2023-07-30T03:28:36;7.15;;;2.60;;
76127;SDS011;64873;50.102;14.434;2023-07-30T03:31:01;5.22;;;2.08;;
76127;SDS011;64873;50.102;14.434;2023-07-30T03:33:27;3.55;;;2.25;;
76127;SDS011;64873;50.102;14.434;2023-07-30T03:35:52;4.15;;;2.13;;
76127;SDS011;64873;50.102;14.434;2023-07-30T03:38:18;3.67;;;2.20;;
76127;SDS011;64873;50.102;14.434;2023-07-30T03:40:43;3.22;;;1.98;;
76127;SDS011;64873;50.102;14.434;2023-07-30T03:43:08;4.45;;;2.05;;
76127;SDS011;64873;50.102;14.434;2023-07-30T03:45:34;7.05;;;2.33;;
76127;SDS011;64873;50.102;14.434;2023-07-30T03:47:59;4.72;;;2.17;;
76127;SDS011;64873;50.102;14.434;2023-07-30T03:50:24;6.78;;;2.10;;
76127;SDS011;64873;50.102;14.434;2023-07-30T03:52:50;6.78;;;1.95;;
76127;SDS011;64873;50.102;14.434;2023-07-30T03:55:15;3.30;;;2.00;;
76127;SDS011;64873;50.102;14.434;2023-07-30T03:57:40;3.95;;;2.50;;
76127;SDS011;64873;50.102;14.434;2023-07-30T04:00:06;4.85;;;2.00;;
76127;SDS011;64873;50.102;14.434;2023-07-30T04:02:32;3.92;;;1.88;;
76127;SDS011;64873;50.102;14.434;2023-07-30T04:04:57;3.33;;;2.10;;
76127;SDS011;64873;50.102;14.434;2023-07-30T04:07:23;7.15;;;2.22;;
76127;SDS011;64873;50.102;14.434;2023-07-30T04:09:48;3.15;;;2.10;;
76127;SDS011;64873;50.102;14.434;2023-07-30T04:12:14;4.82;;;2.15;;
76127;SDS011;64873;50.102;14.434;2023-07-30T04:14:39;5.07;;;2.22;;
76127;SDS011;64873;50.102;14.434;2023-07-30T04:17:04;5.75;;;2.60;;
76127;SDS011;64873;50.102;14.434;2023-07-30T04:19:30;7.05;;;2.60;;
76127;SDS011;64873;50.102;14.434;2023-07-30T04:21:55;5.07;;;2.30;;
76127;SDS011;64873;50.102;14.434;2023-07-30T04:24:21;3.28;;;2.15;;
76127;SDS011;64873;50.102;14.434;2023-07-30T04:26:46;5.03;;;2.17;;
76127;SDS011;64873;50.102;14.434;2023-07-30T04:29:12;6.25;;;2.10;;
76127;SDS011;64873;50.102;14.434;2023-07-30T04:31:39;4.25;;;2.17;;
76127;SDS011;64873;50.102;14.434;2023-07-30T04:34:04;4.95;;;2.10;;
76127;SDS011;64873;50.102;14.434;2023-07-30T04:36:30;4.68;;;2.17;;
76127;SDS011;64873;50.102;14.434;2023-07-30T04:38:55;5.80;;;2.22;;
76127;SDS011;64873;50.102;14.434;2023-07-30T04:41:20;3.90;;;2.05;;
76127;SDS011;64873;50.102;14.434;2023-07-30T04:43:46;3.97;;;2.13;;
76127;SDS011;64873;50.102;14.434;2023-07-30T04:46:11;4.80;;;2.20;;
76127;SDS011;64873;50.102;14.434;2023-07-30T04:48:37;3.92;;;2.10;;
76127;SDS011;64873;50.102;14.434;2023-07-30T04:51:02;5.95;;;2.22;;
76127;SDS011;64873;50.102;14.434;2023-07-30T04:53:28;3.38;;;2.20;;
76127;SDS011;64873;50.102;14.434;2023-07-30T04:55:56;2.35;;;1.85;;
76127;SDS011;64873;50.102;14.434;2023-07-30T04:58:22;4.82;;;2.00;;
76127;SDS011;64873;50.102;14.434;2023-07-30T05:00:48;4.05;;;2.25;;
76127;SDS011;64873;50.102;14.434;2023-07-30T05:03:14;4.70;;;1.90;;
76127;SDS011;64873;50.102;14.434;2023-07-30T05:05:39;3.70;;;1.80;;
76127;SDS011;64873;50.102;14.434;2023-07-30T05:08:05;4.03;;;2.10;;
76127;SDS011;64873;50.102;14.434;2023-07-30T05:10:30;3.72;;;2.10;;
76127;SDS011;64873;50.102;14.434;2023-07-30T05:12:55;4.55;;;2.15;;
76127;SDS011;64873;50.102;14.434;2023-07-30T05:15:21;3.45;;;1.92;;
76127;SDS011;64873;50.102;14.434;2023-07-30T05:17:46;5.45;;;2.33;;
76127;SDS011;64873;50.102;14.434;2023-07-30T05:20:11;4.07;;;2.30;;
76127;SDS011;64873;50.102;14.434;2023-07-30T05:22:37;4.78;;;2.40;;
76127;SDS011;64873;50.102;14.434;2023-07-30T05:25:02;4.05;;;2.10;;
76127;SDS011;64873;50.102;14.434;2023-07-30T05:27:28;4.43;;;2.30;;
76127;SDS011;64873;50.102;14.434;2023-07-30T05:29:54;3.40;;;2.53;;
76127;SDS011;64873;50.102;14.434;2023-07-30T05:32:20;7.00;;;2.72;;
76127;SDS011;64873;50.102;14.434;2023-07-30T05:34:45;3.70;;;2.10;;
76127;SDS011;64873;50.102;14.434;2023-07-30T05:37:11;6.13;;;2.10;;
76127;SDS011;64873;50.102;14.434;2023-07-30T05:39:36;5.35;;;2.10;;
76127;SDS011;64873;50.102;14.434;2023-07-30T05:42:02;5.97;;;2.10;;
76127;SDS011;64873;50.102;14.434;2023-07-30T05:44:27;6.55;;;2.20;;
76127;SDS011;64873;50.102;14.434;2023-07-30T05:46:53;4.07;;;2.20;;
76127;SDS011;64873;50.102;14.434;2023-07-30T05:49:18;8.55;;;2.25;;
76127;SDS011;64873;50.102;14.434;2023-07-30T05:51:44;6.68;;;1.92;;
76127;SDS011;64873;50.102;14.434;2023-07-30T05:54:09;8.15;;;2.00;;
76127;SDS011;64873;50.102;14.434;2023-07-30T05:56:35;3.20;;;2.20;;
76127;SDS011;64873;50.102;14.434;2023-07-30T05:59:00;4.03;;;2.42;;
76127;SDS011;64873;50.102;14.434;2023-07-30T06:01:26;3.60;;;2.45;;
76127;SDS011;64873;50.102;14.434;2023-07-30T06:03:51;6.63;;;2.50;;
76127;SDS011;64873;50.102;14.434;2023-07-30T06:06:16;4.78;;;2.05;;
76127;SDS011;64873;50.102;14.434;2023-07-30T06:08:42;2.80;;;1.92;;
76127;SDS011;64873;50.102;14.434;2023-07-30T06:11:07;3.78;;;2.10;;
76127;SDS011;64873;50.102;14.434;2023-07-30T06:13:33;3.88;;;2.30;;
76127;SDS011;64873;50.102;14.434;2023-07-30T06:15:59;4.57;;;1.90;;
76127;SDS011;64873;50.102;14.434;2023-07-30T06:18:24;6.40;;;2.30;;
76127;SDS011;64873;50.102;14.434;2023-07-30T06:20:49;4.53;;;2.20;;
76127;SDS011;64873;50.102;14.434;2023-07-30T06:23:15;3.15;;;1.88;;
76127;SDS011;64873;50.102;14.434;2023-07-30T06:25:40;3.10;;;2.05;;
76127;SDS011;64873;50.102;14.434;2023-07-30T06:28:06;5.07;;;1.90;;
76127;SDS011;64873;50.102;14.434;2023-07-30T06:30:34;4.75;;;2.38;;
76127;SDS011;64873;50.102;14.434;2023-07-30T06:33:01;6.15;;;1.98;;
76127;SDS011;64873;50.102;14.434;2023-07-30T06:35:27;4.97;;;2.22;;
76127;SDS011;64873;50.102;14.434;2023-07-30T06:37:52;4.00;;;2.05;;
76127;SDS011;64873;50.102;14.434;2023-07-30T06:40:17;3.65;;;1.83;;
76127;SDS011;64873;50.102;14.434;2023-07-30T06:42:43;6.40;;;2.10;;
76127;SDS011;64873;50.102;14.434;2023-07-30T06:45:08;4.10;;;2.00;;
76127;SDS011;64873;50.102;14.434;2023-07-30T06:47:34;3.03;;;1.90;;
76127;SDS011;64873;50.102;14.434;2023-07-30T06:50:00;3.38;;;2.00;;
76127;SDS011;64873;50.102;14.434;2023-07-30T06:52:25;3.50;;;1.70;;
76127;SDS011;64873;50.102;14.434;2023-07-30T06:54:50;4.43;;;2.03;;
76127;SDS011;64873;50.102;14.434;2023-07-30T06:57:16;5.35;;;2.13;;
76127;SDS011;64873;50.102;14.434;2023-07-30T06:59:41;4.55;;;1.90;;
76127;SDS011;64873;50.102;14.434;2023-07-30T07:02:07;5.38;;;2.10;;
76127;SDS011;64873;50.102;14.434;2023-07-30T07:04:32;4.25;;;3.17;;
76127;SDS011;64873;50.102;14.434;2023-07-30T07:06:57;4.80;;;2.00;;
76127;SDS011;64873;50.102;14.434;2023-07-30T07:09:23;4.10;;;2.17;;
76127;SDS011;64873;50.102;14.434;2023-07-30T07:11:48;6.10;;;1.77;;
76127;SDS011;64873;50.102;14.434;2023-07-30T07:14:14;4.13;;;1.70;;
76127;SDS011;64873;50.102;14.434;2023-07-30T07:16:39;3.75;;;2.00;;
76127;SDS011;64873;50.102;14.434;2023-07-30T07:19:04;3.67;;;1.90;;
76127;SDS011;64873;50.102;14.434;2023-07-30T07:21:30;4.07;;;1.60;;
76127;SDS011;64873;50.102;14.434;2023-07-30T07:23:55;4.20;;;2.00;;
76127;SDS011;64873;50.102;14.434;2023-07-30T07:26:21;2.50;;;1.80;;
76127;SDS011;64873;50.102;14.434;2023-07-30T07:28:46;3.97;;;1.70;;
76127;SDS011;64873;50.102;14.434;2023-07-30T07:31:12;3.83;;;2.00;;
76127;SDS011;64873;50.102;14.434;2023-07-30T07:33:38;4.00;;;2.15;;
76127;SDS011;64873;50.102;14.434;2023-07-30T07:36:07;2.97;;;2.17;;
76127;SDS011;64873;50.102;14.434;2023-07-30T07:38:33;3.83;;;2.03;;
76127;SDS011;64873;50.102;14.434;2023-07-30T07:40:59;7.65;;;3.00;;
76127;SDS011;64873;50.102;14.434;2023-07-30T07:43:26;4.70;;;2.78;;
76127;SDS011;64873;50.102;14.434;2023-07-30T07:45:52;5.60;;;1.98;;
76127;SDS011;64873;50.102;14.434;2023-07-30T07:48:17;10.68;;;3.05;;
76127;SDS011;64873;50.102;14.434;2023-07-30T07:50:43;5.95;;;2.00;;
76127;SDS011;64873;50.102;14.434;2023-07-30T07:53:08;4.82;;;2.03;;
76127;SDS011;64873;50.102;14.434;2023-07-30T07:55:34;3.20;;;2.05;;
76127;SDS011;64873;50.102;14.434;2023-07-30T07:58:00;3.90;;;1.92;;
76127;SDS011;64873;50.102;14.434;2023-07-30T08:00:25;4.40;;;2.00;;
76127;SDS011;64873;50.102;14.434;2023-07-30T08:02:50;6.20;;;2.05;;
76127;SDS011;64873;50.102;14.434;2023-07-30T08:05:16;4.63;;;1.90;;
76127;SDS011;64873;50.102;14.434;2023-07-30T08:07:43;4.32;;;2.25;;
76127;SDS011;64873;50.102;14.434;2023-07-30T08:10:10;6.72;;;2.58;;
76127;SDS011;64873;50.102;14.434;2023-07-30T08:12:36;5.25;;;1.88;;
76127;SDS011;64873;50.102;14.434;2023-07-30T08:15:01;4.00;;;2.15;;
76127;SDS011;64873;50.102;14.434;2023-07-30T08:17:27;2.75;;;1.58;;
76127;SDS011;64873;50.102;14.434;2023-07-30T08:19:52;3.00;;;1.88;;
76127;SDS011;64873;50.102;14.434;2023-07-30T08:22:18;3.38;;;1.48;;
76127;SDS011;64873;50.102;14.434;2023-07-30T08:24:43;6.38;;;1.92;;
76127;SDS011;64873;50.102;14.434;2023-07-30T08:27:08;2.42;;;1.48;;
76127;SDS011;64873;50.102;14.434;2023-07-30T08:29:34;3.53;;;1.55;;
76127;SDS011;64873;50.102;14.434;2023-07-30T08:31:59;4.07;;;1.65;;
76127;SDS011;64873;50.102;14.434;2023-07-30T08:34:25;3.13;;;1.75;;
76127;SDS011;64873;50.102;14.434;2023-07-30T08:36:50;4.00;;;1.73;;
76127;SDS011;64873;50.102;14.434;2023-07-30T08:39:16;4.03;;;2.00;;
76127;SDS011;64873;50.102;14.434;2023-07-30T08:41:41;5.22;;;1.52;;
76127;SDS011;64873;50.102;14.434;2023-07-30T08:44:06;2.88;;;1.63;;
76127;SDS011;64873;50.102;14.434;2023-07-30T08:46:34;2.67;;;1.50;;
76127;SDS011;64873;50.102;14.434;2023-07-30T08:48:59;2.92;;;1.35;;
76127;SDS011;64873;50.102;14.434;2023-07-30T08:51:25;3.58;;;1.48;;
76127;SDS011;64873;50.102;14.434;2023-07-30T08:53:51;2.58;;;1.38;;
76127;SDS011;64873;50.102;14.434;2023-07-30T08:56:17;2.80;;;1.33;;
76127;SDS011;64873;50.102;14.434;2023-07-30T08:58:44;2.92;;;1.35;;
76127;SDS011;64873;50.102;14.434;2023-07-30T09:01:11;2.53;;;1.85;;
76127;SDS011;64873;50.102;14.434;2023-07-30T09:03:38;4.10;;;2.08;;
76127;SDS011;64873;50.102;14.434;2023-07-30T09:06:04;3.22;;;1.70;;
76127;SDS011;64873;50.102;14.434;2023-07-30T09:08:30;6.05;;;2.03;;
76127;SDS011;64873;50.102;14.434;2023-07-30T09:10:57;5.50;;;2.03;;
76127;SDS011;64873;50.102;14.434;2023-07-30T09:13:35;3.00;;;1.90;;
76127;SDS011;64873;50.102;14.434;2023-07-30T09:16:07;6.40;;;3.20;;
76127;SDS011;64873;50.102;14.434;2023-07-30T09:18:38;8.60;;;2.15;;
76127;SDS011;64873;50.102;14.434;2023-07-30T09:21:09;4.75;;;1.92;;
76127;SDS011;64873;50.102;14.434;2023-07-30T09:23:42;4.38;;;1.83;;
76127;SDS011;64873;50.102;14.434;2023-07-30T09:26:08;4.18;;;1.85;;
76127;SDS011;64873;50.102;14.434;2023-07-30T09:28:34;4.68;;;1.80;;
76127;SDS011;64873;50.102;14.434;2023-07-30T09:31:01;4.30;;;2.03;;
76127;SDS011;64873;50.102;14.434;2023-07-30T09:33:27;3.97;;;2.00;;
76127;SDS011;64873;50.102;14.434;2023-07-30T09:35:52;3.38;;;2.22;;
76127;SDS011;64873;50.102;14.434;2023-07-30T09:38:18;4.38;;;2.20;;
76127;SDS011;64873;50.102;14.434;2023-07-30T09:40:45;3.97;;;2.00;;
76127;SDS011;64873;50.102;14.434;2023-07-30T09:43:14;4.63;;;2.28;;
76127;SDS011;64873;50.102;14.434;2023-07-30T09:45:39;5.80;;;2.95;;
76127;SDS011;64873;50.102;14.434;2023-07-30T09:48:05;4.57;;;2.38;;
76127;SDS011;64873;50.102;14.434;2023-07-30T09:50:33;4.32;;;2.28;;
76127;SDS011;64873;50.102;14.434;2023-07-30T09:52:58;4.68;;;2.28;;
76127;SDS011;64873;50.102;14.434;2023-07-30T09:55:26;4.28;;;2.35;;
76127;SDS011;64873;50.102;14.434;2023-07-30T09:57:52;4.47;;;1.98;;
76127;SDS011;64873;50.102;14.434;2023-07-30T10:00:17;3.92;;;2.00;;
76127;SDS011;64873;50.102;14.434;2023-07-30T10:02:45;2.97;;;1.98;;
76127;SDS011;64873;50.102;14.434;2023-07-30T10:05:18;3.90;;;1.80;;
76127;SDS011;64873;50.102;14.434;2023-07-30T10:07:53;2.92;;;1.90;;
76127;SDS011;64873;50.102;14.434;2023-07-30T10:10:24;3.03;;;1.80;;
76127;SDS011;64873;50.102;14.434;2023-07-30T10:12:51;7.15;;;1.95;;
76127;SDS011;64873;50.102;14.434;2023-07-30T10:15:21;4.03;;;2.30;;
76127;SDS011;64873;50.102;14.434;2023-07-30T10:17:48;3.50;;;1.95;;
76127;SDS011;64873;50.102;14.434;2023-07-30T10:20:28;3.78;;;1.77;;
76127;SDS011;64873;50.102;14.434;2023-07-30T10:22:56;2.90;;;2.25;;
76127;SDS011;64873;50.102;14.434;2023-07-30T10:25:41;8.57;;;4.18;;
76127;SDS011;64873;50.102;14.434;2023-07-30T10:28:33;3.08;;;2.30;;
76127;SDS011;64873;50.102;14.434;2023-07-30T10:30:59;2.90;;;2.00;;
76127;SDS011;64873;50.102;14.434;2023-07-30T10:39:27;5.50;;;1.80;;
76127;SDS011;64873;50.102;14.434;2023-07-30T10:41:57;3.15;;;1.77;;
76127;SDS011;64873;50.102;14.434;2023-07-30T10:44:43;7.32;;;2.17;;
76127;SDS011;64873;50.102;14.434;2023-07-30T10:47:10;2.47;;;1.60;;
76127;SDS011;64873;50.102;14.434;2023-07-30T10:49:36;3.88;;;1.90;;
76127;SDS011;64873;50.102;14.434;2023-07-30T10:52:11;2.55;;;1.80;;
76127;SDS011;64873;50.102;14.434;2023-07-30T10:54:37;2.20;;;1.58;;
76127;SDS011;64873;50.102;14.434;2023-07-30T10:57:03;3.50;;;1.90;;
76127;SDS011;64873;50.102;14.434;2023-07-30T10:59:35;2.80;;;1.63;;
76127;SDS011;64873;50.102;14.434;2023-07-30T11:02:04;3.35;;;1.88;;
76127;SDS011;64873;50.102;14.434;2023-07-30T11:04:33;4.35;;;1.65;;
76127;SDS011;64873;50.102;14.434;2023-07-30T11:06:59;3.22;;;1.65;;
76127;SDS011;64873;50.102;14.434;2023-07-30T11:09:25;6.18;;;1.67;;
76127;SDS011;64873;50.102;14.434;2023-07-30T11:11:52;2.58;;;1.80;;
76127;SDS011;64873;50.102;14.434;2023-07-30T11:14:21;4.75;;;2.83;;
76127;SDS011;64873;50.102;14.434;2023-07-30T11:16:51;4.40;;;2.72;;
76127;SDS011;64873;50.102;14.434;2023-07-30T11:19:19;3.03;;;2.00;;
76127;SDS011;64873;50.102;14.434;2023-07-30T11:21:46;12.40;;;2.20;;
76127;SDS011;64873;50.102;14.434;2023-07-30T11:24:15;1.85;;;1.55;;
76127;SDS011;64873;50.102;14.434;2023-07-30T11:26:40;2.03;;;1.60;;
76127;SDS011;64873;50.102;14.434;2023-07-30T11:29:19;5.13;;;1.73;;
76127;SDS011;64873;50.102;14.434;2023-07-30T11:31:45;2.45;;;1.80;;
76127;SDS011;64873;50.102;14.434;2023-07-30T11:34:12;4.10;;;1.92;;
76127;SDS011;64873;50.102;14.434;2023-07-30T11:36:39;3.78;;;1.70;;
76127;SDS011;64873;50.102;14.434;2023-07-30T11:39:06;3.35;;;1.40;;
76127;SDS011;64873;50.102;14.434;2023-07-30T11:41:33;2.60;;;1.50;;
76127;SDS011;64873;50.102;14.434;2023-07-30T11:43:58;2.45;;;1.50;;
76127;SDS011;64873;50.102;14.434;2023-07-30T11:46:24;6.57;;;1.90;;
76127;SDS011;64873;50.102;14.434;2023-07-30T11:48:51;4.00;;;1.50;;
76127;SDS011;64873;50.102;14.434;2023-07-30T11:51:18;2.13;;;1.48;;
76127;SDS011;64873;50.102;14.434;2023-07-30T11:54:01;4.85;;;1.67;;
76127;SDS011;64873;50.102;14.434;2023-07-30T11:56:28;2.30;;;1.67;;
76127;SDS011;64873;50.102;14.434;2023-07-30T11:58:56;2.13;;;1.45;;
76127;SDS011;64873;50.102;14.434;2023-07-30T12:01:23;2.92;;;1.63;;
76127;SDS011;64873;50.102;14.434;2023-07-30T12:03:53;2.63;;;1.63;;
76127;SDS011;64873;50.102;14.434;2023-07-30T12:06:20;2.10;;;1.42;;
76127;SDS011;64873;50.102;14.434;2023-07-30T12:08:47;2.90;;;1.25;;
76127;SDS011;64873;50.102;14.434;2023-07-30T12:11:13;2.78;;;1.15;;
76127;SDS011;64873;50.102;14.434;2023-07-30T12:13:43;1.40;;;1.17;;
76127;SDS011;64873;50.102;14.434;2023-07-30T12:16:10;3.83;;;1.33;;
76127;SDS011;64873;50.102;14.434;2023-07-30T12:18:37;2.70;;;1.58;;
76127;SDS011;64873;50.102;14.434;2023-07-30T12:21:03;3.65;;;1.70;;
76127;SDS011;64873;50.102;14.434;2023-07-30T12:23:31;2.65;;;2.05;;
76127;SDS011;64873;50.102;14.434;2023-07-30T12:25:57;2.35;;;2.00;;
76127;SDS011;64873;50.102;14.434;2023-07-30T12:28:22;5.72;;;1.65;;
76127;SDS011;64873;50.102;14.434;2023-07-30T12:30:48;5.82;;;1.50;;
76127;SDS011;64873;50.102;14.434;2023-07-30T12:33:13;2.00;;;1.48;;
76127;SDS011;64873;50.102;14.434;2023-07-30T12:35:39;5.32;;;1.67;;
76127;SDS011;64873;50.102;14.434;2023-07-30T12:38:04;3.05;;;2.50;;
76127;SDS011;64873;50.102;14.434;2023-07-30T12:40:30;3.10;;;1.90;;
76127;SDS011;64873;50.102;14.434;2023-07-30T12:42:59;5.47;;;1.73;;
76127;SDS011;64873;50.102;14.434;2023-07-30T12:45:25;1.88;;;1.30;;
76127;SDS011;64873;50.102;14.434;2023-07-30T12:47:51;2.75;;;1.58;;
76127;SDS011;64873;50.102;14.434;2023-07-30T12:50:16;2.28;;;1.40;;
76127;SDS011;64873;50.102;14.434;2023-07-30T12:52:42;2.20;;;1.60;;
76127;SDS011;64873;50.102;14.434;2023-07-30T12:55:07;2.42;;;1.88;;
76127;SDS011;64873;50.102;14.434;2023-07-30T12:57:32;3.92;;;1.80;;
76127;SDS011;64873;50.102;14.434;2023-07-30T12:59:58;2.70;;;1.95;;
76127;SDS011;64873;50.102;14.434;2023-07-30T13:02:23;2.80;;;1.85;;
76127;SDS011;64873;50.102;14.434;2023-07-30T13:04:49;2.33;;;1.52;;
76127;SDS011;64873;50.102;14.434;2023-07-30T13:07:14;2.05;;;1.60;;
76127;SDS011;64873;50.102;14.434;2023-07-30T13:09:40;1.92;;;1.40;;
76127;SDS011;64873;50.102;14.434;2023-07-30T13:12:05;3.00;;;1.70;;
76127;SDS011;64873;50.102;14.434;2023-07-30T13:14:31;3.50;;;1.33;;
76127;SDS011;64873;50.102;14.434;2023-07-30T13:16:56;1.98;;;1.30;;
76127;SDS011;64873;50.102;14.434;2023-07-30T13:19:22;2.63;;;1.27;;
76127;SDS011;64873;50.102;14.434;2023-07-30T13:21:47;2.00;;;1.42;;
76127;SDS011;64873;50.102;14.434;2023-07-30T13:24:13;2.42;;;1.38;;
76127;SDS011;64873;50.102;14.434;2023-07-30T13:26:38;2.00;;;1.20;;
76127;SDS011;64873;50.102;14.434;2023-07-30T13:29:03;4.50;;;1.45;;
76127;SDS011;64873;50.102;14.434;2023-07-30T13:31:29;1.90;;;1.13;;
76127;SDS011;64873;50.102;14.434;2023-07-30T13:33:55;2.55;;;1.10;;
76127;SDS011;64873;50.102;14.434;2023-07-30T13:36:20;1.50;;;1.10;;
76127;SDS011;64873;50.102;14.434;2023-07-30T13:38:46;2.50;;;1.20;;
76127;SDS011;64873;50.102;14.434;2023-07-30T13:41:11;2.33;;;1.23;;
76127;SDS011;64873;50.102;14.434;2023-07-30T13:43:37;1.60;;;1.20;;
76127;SDS011;64873;50.102;14.434;2023-07-30T13:46:02;3.47;;;1.30;;
76127;SDS011;64873;50.102;14.434;2023-07-30T13:48:28;2.55;;;1.30;;
76127;SDS011;64873;50.102;14.434;2023-07-30T13:50:53;2.47;;;1.48;;
76127;SDS011;64873;50.102;14.434;2023-07-30T13:53:18;2.90;;;1.15;;
76127;SDS011;64873;50.102;14.434;2023-07-30T13:55:44;2.25;;;1.42;;
76127;SDS011;64873;50.102;14.434;2023-07-30T13:58:10;1.73;;;1.20;;
76127;SDS011;64873;50.102;14.434;2023-07-30T14:00:36;2.25;;;1.63;;
76127;SDS011;64873;50.102;14.434;2023-07-30T14:03:01;2.80;;;1.35;;
76127;SDS011;64873;50.102;14.434;2023-07-30T14:05:27;3.55;;;1.45;;
76127;SDS011;64873;50.102;14.434;2023-07-30T14:07:55;2.58;;;1.38;;
76127;SDS011;64873;50.102;14.434;2023-07-30T14:10:23;3.72;;;1.70;;
76127;SDS011;64873;50.102;14.434;2023-07-30T14:12:49;4.22;;;1.55;;
76127;SDS011;64873;50.102;14.434;2023-07-30T14:15:15;2.30;;;1.45;;
76127;SDS011;64873;50.102;14.434;2023-07-30T14:17:41;3.63;;;1.55;;
76127;SDS011;64873;50.102;14.434;2023-07-30T14:20:06;1.73;;;1.30;;
76127;SDS011;64873;50.102;14.434;2023-07-30T14:22:33;2.00;;;1.42;;
76127;SDS011;64873;50.102;14.434;2023-07-30T14:24:59;1.98;;;1.60;;
76127;SDS011;64873;50.102;14.434;2023-07-30T14:27:24;2.63;;;1.23;;
76127;SDS011;64873;50.102;14.434;2023-07-30T14:29:50;3.05;;;1.30;;
76127;SDS011;64873;50.102;14.434;2023-07-30T14:32:16;4.22;;;1.27;;
76127;SDS011;64873;50.102;14.434;2023-07-30T14:34:42;1.90;;;1.30;;